Weather History for Carroll, IA

Change the Weather History Date:

Sunday, February 3, 2013

  Actual Average Record
Temperature  
Mean Temperature 24 °F -  
Max Temperature 33 °F 25 °F 55 °F (2005)
Min Temperature 15 °F 7 °F -18 °F (1989)
Degree Days  
Heating Degree Days 41    
Moisture  
Dew Point 19 °F    
Average Humidity 74    
Maximum Humidity 86    
Minimum Humidity 60    
Precipitation  
Precipitation 0.00 in - - ()
Sea Level Pressure  
Sea Level Pressure 29.99 in    
Wind  
Wind Speed 18 mph (WSW)    
Max Wind Speed 24 mph    
Max Gust Speed 32 mph    
Visibility 10 miles    
Events      
Averages and records for this station are not official NWS values.
T = Trace of Precipitation, MM = Missing Value Source: NWS Daily Summary

Daily Weather History Graph

Daily Weather History Graph

Search for Another Location

Airport:

Trip Planner

Search our weather history database for the weather conditions in past years. The results will help you decide how hot, cold, wet, or windy it might be!

Date:

Astronomy

Feb. 03, 2013 Rise Set
Actual Time 7:29 AM CST 5:36 PM CST
Civil Twilight 7:00 AM CST 6:06 PM CST
Nautical Twilight 6:26 AM CST 6:39 PM CST
Astronomical Twilight 5:54 AM CST 7:12 PM CST
Moon 12:58 AM CST (2/3) 11:14 AM CST (2/3)
Length of Visible Light 11h 06m
Length of Day
10h 07m
Waning Gibbous, 48% of the Moon is Illuminated
Feb 3
Waning Gibbous
Feb 10
New
Feb 17
First Quarter
Feb 25
Full
Mar 4
Last Quarter

Hourly Weather History & Observations

Time (CST) Temp. Windchill Dew Point Humidity Pressure Visibility Wind Dir Wind Speed Gust Speed Precip Events Conditions
12:15 AM 26.6 °F 12.0 °F 19.4 °F 74% 30.04 in 10.0 mi NW 23.0 mph 31.1 mph N/A   Mostly Cloudy
12:35 AM 24.8 °F 9.3 °F 19.4 °F 80% 30.05 in 8.0 mi NW 24.2 mph 32.2 mph N/A   Overcast
12:55 AM 24.8 °F 10.0 °F 19.4 °F 80% 30.06 in 8.0 mi NW 21.9 mph 29.9 mph N/A   Mostly Cloudy
1:15 AM 23.0 °F 7.6 °F 17.6 °F 80% 30.06 in 10.0 mi WNW 21.9 mph 28.8 mph N/A   Clear
1:35 AM 23.0 °F 7.6 °F 15.8 °F 74% 30.07 in 10.0 mi WNW 21.9 mph 28.8 mph N/A   Mostly Cloudy
1:55 AM 23.0 °F 6.9 °F 15.8 °F 74% 30.09 in 10.0 mi NW 24.2 mph 29.9 mph N/A   Mostly Cloudy
2:15 AM 23.0 °F 7.6 °F 15.8 °F 74% 30.09 in 10.0 mi NW 21.9 mph 31.1 mph N/A   Mostly Cloudy
2:35 AM 21.2 °F 5.6 °F 15.8 °F 80% 30.10 in 10.0 mi NW 20.7 mph 29.9 mph N/A   Mostly Cloudy
2:55 AM 21.2 °F 5.2 °F 14.0 °F 74% 30.11 in 10.0 mi NW 21.9 mph 28.8 mph N/A   Overcast
3:15 AM 21.2 °F 4.9 °F 14.0 °F 74% 30.11 in 10.0 mi NW 23.0 mph 32.2 mph N/A   Mostly Cloudy
3:55 AM 19.4 °F 3.6 °F 14.0 °F 80% 30.11 in 10.0 mi NW 19.6 mph 25.3 mph N/A   Scattered Clouds
4:15 AM 19.4 °F 4.1 °F 12.2 °F 74% 30.11 in - NW 18.4 mph - N/A   Partly Cloudy
4:35 AM 17.6 °F 2.2 °F 12.2 °F 79% 30.12 in 10.0 mi NW 17.3 mph 23.0 mph N/A   Clear
4:55 AM 17.6 °F 3.7 °F 12.2 °F 79% 30.12 in 10.0 mi NW 13.8 mph 20.7 mph N/A   Clear
5:15 AM 15.8 °F 2.1 °F 10.4 °F 79% 30.13 in 10.0 mi WNW 12.7 mph - N/A   Clear
5:35 AM 15.8 °F 1.4 °F 10.4 °F 79% 30.13 in 10.0 mi NW 13.8 mph - N/A   Clear
5:55 AM 15.8 °F 0.3 °F 10.4 °F 79% 30.14 in 10.0 mi NW 16.1 mph - N/A   Clear
6:15 AM 15.8 °F 0.9 °F 10.4 °F 79% 30.15 in 10.0 mi WNW 15.0 mph 21.9 mph N/A   Clear
6:35 AM 15.8 °F 0.9 °F 10.4 °F 79% 30.15 in 10.0 mi WNW 15.0 mph - N/A   Clear
6:55 AM 15.8 °F 2.1 °F 10.4 °F 79% 30.14 in 10.0 mi WNW 12.7 mph 19.6 mph N/A   Clear
7:15 AM 15.8 °F 2.7 °F 8.6 °F 73% 30.14 in 10.0 mi West 11.5 mph - N/A   Clear
7:35 AM 15.8 °F 2.7 °F 8.6 °F 73% 30.13 in 10.0 mi West 11.5 mph - N/A   Clear
7:55 AM 15.8 °F 0.3 °F 8.6 °F 73% 30.13 in 10.0 mi WNW 16.1 mph - N/A   Clear
8:15 AM 15.8 °F 0.9 °F 10.4 °F 79% 30.13 in 10.0 mi West 15.0 mph - N/A   Clear
8:35 AM 17.6 °F 3.2 °F 10.4 °F 73% 30.13 in 10.0 mi West 15.0 mph - N/A   Clear
8:55 AM 17.6 °F 5.0 °F 12.2 °F 79% 30.14 in 10.0 mi WNW 11.5 mph - N/A   Mostly Cloudy
9:15 AM 19.4 °F 7.2 °F 12.2 °F 74% 30.14 in 10.0 mi WNW 11.5 mph - N/A   Overcast
9:35 AM 21.2 °F 11.7 °F 12.2 °F 68% 30.13 in 10.0 mi WNW 8.1 mph - N/A   Overcast
9:55 AM 21.2 °F 9.5 °F 12.2 °F 68% 30.10 in 10.0 mi WSW 11.5 mph - N/A   Overcast
10:15 AM 23.0 °F 10.1 °F 14.0 °F 68% 30.12 in 10.0 mi West 15.0 mph - N/A   Scattered Clouds
10:35 AM 24.8 °F 12.9 °F 15.8 °F 69% 30.12 in 10.0 mi West 13.8 mph - N/A   Mostly Cloudy
10:55 AM 24.8 °F 12.4 °F 15.8 °F 69% 30.11 in 10.0 mi West 15.0 mph - N/A   Overcast
11:15 AM 24.8 °F 12.4 °F 15.8 °F 69% 30.11 in 10.0 mi WSW 15.0 mph - N/A   Overcast
11:35 AM 26.6 °F 15.2 °F 17.6 °F 69% 30.11 in 10.0 mi WSW 13.8 mph - N/A   Overcast
11:55 AM 26.6 °F 15.7 °F 17.6 °F 69% 30.09 in 10.0 mi WSW 12.7 mph - N/A   Overcast
12:15 PM 28.4 °F 18.5 °F 19.4 °F 69% 30.07 in 10.0 mi WSW 11.5 mph - N/A   Overcast
12:35 PM 30.2 °F 20.2 °F 19.4 °F 64% 30.06 in 10.0 mi SW 12.7 mph - N/A   Partly Cloudy
12:55 PM 30.2 °F 20.8 °F 19.4 °F 64% 30.04 in 10.0 mi SW 11.5 mph - N/A   Clear
1:15 PM 32.0 °F 23.6 °F 19.4 °F 60% 30.03 in 10.0 mi SW 10.4 mph - N/A   Clear
1:35 PM 32.0 °F 21.6 °F 21.2 °F 64% 30.01 in 10.0 mi South 15.0 mph - N/A   Clear
1:55 PM 32.0 °F 21.2 °F 21.2 °F 64% 29.99 in 10.0 mi SSW 16.1 mph - N/A   Clear
2:15 PM 32.0 °F 20.1 °F 23.0 °F 69% 29.97 in 10.0 mi South 19.6 mph - N/A   Clear
2:35 PM 32.0 °F 19.8 °F 21.2 °F 64% 29.96 in 10.0 mi SSW 20.7 mph - N/A   Clear
2:55 PM 33.8 °F 22.5 °F 23.0 °F 65% 29.95 in 10.0 mi SSW 19.6 mph - N/A   Clear
3:15 PM 33.8 °F 21.6 °F 23.0 °F 65% 29.94 in 10.0 mi SSW 23.0 mph - N/A   Clear
3:35 PM 33.8 °F 22.2 °F 21.2 °F 60% 29.93 in 10.0 mi SSW 20.7 mph - N/A   Clear
3:55 PM 33.8 °F 22.8 °F 23.0 °F 65% 29.93 in 10.0 mi SSW 18.4 mph 24.2 mph N/A   Clear
4:15 PM 33.8 °F 23.5 °F 23.0 °F 65% 29.93 in 10.0 mi SSW 16.1 mph 23.0 mph N/A   Clear
4:35 PM 32.0 °F 21.6 °F 24.8 °F 75% 29.91 in 10.0 mi SSW 15.0 mph - N/A   Clear
4:55 PM 32.0 °F 23.0 °F 24.8 °F 75% 29.90 in 10.0 mi SSW 11.5 mph - N/A   Clear
5:15 PM 32.0 °F 23.0 °F 24.8 °F 75% 29.89 in 10.0 mi SSW 11.5 mph - N/A   Clear
5:35 PM 32.0 °F 24.2 °F 26.6 °F 80% 29.89 in 10.0 mi South 9.2 mph - N/A   Clear
5:55 PM 30.2 °F 21.3 °F 26.6 °F 86% 29.88 in 10.0 mi South 10.4 mph - N/A   Clear
6:15 PM 30.2 °F 20.8 °F 24.8 °F 80% 29.87 in 10.0 mi South 11.5 mph - N/A   Clear
6:35 PM 30.2 °F 21.3 °F 24.8 °F 80% 29.87 in 10.0 mi South 10.4 mph - N/A   Clear
6:55 PM 30.2 °F 20.8 °F 24.8 °F 80% 29.86 in 10.0 mi South 11.5 mph - N/A   Clear
7:15 PM 30.2 °F 20.8 °F 24.8 °F 80% 29.85 in 10.0 mi South 11.5 mph - N/A   Clear
7:35 PM 30.2 °F 20.2 °F 24.8 °F 80% 29.84 in 10.0 mi South 12.7 mph - N/A   Clear
7:55 PM 30.2 °F 19.8 °F 26.6 °F 86% 29.83 in 10.0 mi South 13.8 mph - N/A   Clear
8:15 PM 32.0 °F 21.6 °F 26.6 °F 80% 29.82 in 10.0 mi SSW 15.0 mph - N/A   Clear
8:35 PM 32.0 °F 21.2 °F 26.6 °F 80% 29.81 in 10.0 mi SSW 16.1 mph - N/A   Clear
8:55 PM 32.0 °F 20.1 °F 26.6 °F 80% 29.80 in 10.0 mi SSW 19.6 mph - N/A   Clear
9:15 PM 32.0 °F 20.8 °F 26.6 °F 80% 29.78 in 10.0 mi SSW 17.3 mph - N/A   Clear
9:35 PM 32.0 °F 20.1 °F 26.6 °F 80% 29.77 in 10.0 mi SSW 19.6 mph - N/A   Clear
9:55 PM 33.8 °F 23.2 °F 26.6 °F 75% 29.77 in 10.0 mi SW 17.3 mph - N/A   Clear
10:15 PM 33.8 °F 22.5 °F 26.6 °F 75% 29.76 in 10.0 mi SW 19.6 mph - N/A   Clear
10:35 PM 33.8 °F 22.2 °F 26.6 °F 75% 29.75 in 10.0 mi SW 20.7 mph - N/A   Clear
10:55 PM 33.8 °F 22.2 °F 26.6 °F 75% 29.74 in 10.0 mi SW 20.7 mph - N/A   Clear
11:15 PM 33.8 °F 22.5 °F 26.6 °F 75% 29.74 in 10.0 mi SW 19.6 mph - N/A   Clear
11:35 PM 33.8 °F 23.2 °F 26.6 °F 75% 29.74 in 10.0 mi SW 17.3 mph - N/A   Clear
11:55 PM 33.8 °F 23.5 °F 26.6 °F 75% 29.74 in 10.0 mi SW 16.1 mph 24.2 mph N/A   Clear